sensor_id;sensor_type;location;lat;lon;timestamp;temperature;humidity
5520;DHT22;2782;52.362;10.012;2023-07-13T00:00:18;22.50;68.00
5520;DHT22;2782;52.362;10.012;2023-07-13T00:01:19;22.50;68.00
5520;DHT22;2782;52.362;10.012;2023-07-13T00:02:20;22.50;68.00
5520;DHT22;2782;52.362;10.012;2023-07-13T00:03:23;22.50;68.20
5520;DHT22;2782;52.362;10.012;2023-07-13T00:04:24;22.50;68.20
5520;DHT22;2782;52.362;10.012;2023-07-13T00:05:27;22.50;68.40
5520;DHT22;2782;52.362;10.012;2023-07-13T00:06:28;22.40;68.50
5520;DHT22;2782;52.362;10.012;2023-07-13T00:07:33;22.40;68.60
5520;DHT22;2782;52.362;10.012;2023-07-13T00:08:34;22.40;68.80
5520;DHT22;2782;52.362;10.012;2023-07-13T00:09:36;22.40;69.00
5520;DHT22;2782;52.362;10.012;2023-07-13T00:10:39;22.30;69.00
5520;DHT22;2782;52.362;10.012;2023-07-13T00:11:42;22.40;69.20
5520;DHT22;2782;52.362;10.012;2023-07-13T00:12:43;22.30;69.20
5520;DHT22;2782;52.362;10.012;2023-07-13T00:13:45;22.30;69.30
5520;DHT22;2782;52.362;10.012;2023-07-13T00:14:46;22.20;69.40
5520;DHT22;2782;52.362;10.012;2023-07-13T00:15:47;22.30;69.50
5520;DHT22;2782;52.362;10.012;2023-07-13T00:16:48;22.30;69.50
5520;DHT22;2782;52.362;10.012;2023-07-13T00:17:50;22.20;69.40
5520;DHT22;2782;52.362;10.012;2023-07-13T00:18:51;22.20;69.50
5520;DHT22;2782;52.362;10.012;2023-07-13T00:19:53;22.20;69.50
5520;DHT22;2782;52.362;10.012;2023-07-13T00:20:55;22.20;69.50
5520;DHT22;2782;52.362;10.012;2023-07-13T00:22:05;22.20;69.60
5520;DHT22;2782;52.362;10.012;2023-07-13T00:23:06;22.20;69.60
5520;DHT22;2782;52.362;10.012;2023-07-13T00:24:09;22.20;69.90
5520;DHT22;2782;52.362;10.012;2023-07-13T00:25:13;22.20;70.10
5520;DHT22;2782;52.362;10.012;2023-07-13T00:26:14;22.20;70.10
5520;DHT22;2782;52.362;10.012;2023-07-13T00:27:15;22.20;70.30
5520;DHT22;2782;52.362;10.012;2023-07-13T00:28:18;22.10;70.20
5520;DHT22;2782;52.362;10.012;2023-07-13T00:29:18;22.10;70.20
5520;DHT22;2782;52.362;10.012;2023-07-13T00:30:21;22.10;70.40
5520;DHT22;2782;52.362;10.012;2023-07-13T00:31:24;22.10;70.50
5520;DHT22;2782;52.362;10.012;2023-07-13T00:32:25;22.10;70.60
5520;DHT22;2782;52.362;10.012;2023-07-13T00:33:27;22.10;70.70
5520;DHT22;2782;52.362;10.012;2023-07-13T00:34:28;22.10;70.70
5520;DHT22;2782;52.362;10.012;2023-07-13T00:35:30;22.10;70.70
5520;DHT22;2782;52.362;10.012;2023-07-13T00:36:33;22.00;70.70
5520;DHT22;2782;52.362;10.012;2023-07-13T00:37:34;22.00;70.80
5520;DHT22;2782;52.362;10.012;2023-07-13T00:38:37;22.00;70.80
5520;DHT22;2782;52.362;10.012;2023-07-13T00:39:38;22.00;70.80
5520;DHT22;2782;52.362;10.012;2023-07-13T00:40:40;22.00;70.80
5520;DHT22;2782;52.362;10.012;2023-07-13T00:41:40;22.00;70.80
5520;DHT22;2782;52.362;10.012;2023-07-13T00:42:43;22.00;70.80
5520;DHT22;2782;52.362;10.012;2023-07-13T00:43:43;22.00;70.80
5520;DHT22;2782;52.362;10.012;2023-07-13T00:45:00;22.00;70.90
5520;DHT22;2782;52.362;10.012;2023-07-13T00:46:15;22.00;70.90
5520;DHT22;2782;52.362;10.012;2023-07-13T00:47:17;22.00;70.90
5520;DHT22;2782;52.362;10.012;2023-07-13T00:48:21;22.00;71.10
5520;DHT22;2782;52.362;10.012;2023-07-13T00:49:24;22.00;71.00
5520;DHT22;2782;52.362;10.012;2023-07-13T00:50:26;22.00;71.10
5520;DHT22;2782;52.362;10.012;2023-07-13T00:51:32;22.00;71.10
5520;DHT22;2782;52.362;10.012;2023-07-13T00:52:38;22.00;71.10
5520;DHT22;2782;52.362;10.012;2023-07-13T00:53:42;22.00;71.20
5520;DHT22;2782;52.362;10.012;2023-07-13T00:54:46;22.00;71.10
5520;DHT22;2782;52.362;10.012;2023-07-13T00:55:51;22.00;71.10
5520;DHT22;2782;52.362;10.012;2023-07-13T00:56:55;22.10;71.00
5520;DHT22;2782;52.362;10.012;2023-07-13T00:57:59;22.10;71.00
5520;DHT22;2782;52.362;10.012;2023-07-13T00:59:00;22.10;71.00
5520;DHT22;2782;52.362;10.012;2023-07-13T01:00:05;22.10;70.90
5520;DHT22;2782;52.362;10.012;2023-07-13T01:01:07;22.10;70.70
5520;DHT22;2782;52.362;10.012;2023-07-13T01:02:07;22.20;70.80
5520;DHT22;2782;52.362;10.012;2023-07-13T01:03:09;22.20;70.60
5520;DHT22;2782;52.362;10.012;2023-07-13T01:04:10;22.20;70.50
5520;DHT22;2782;52.362;10.012;2023-07-13T01:05:13;22.20;70.40
5520;DHT22;2782;52.362;10.012;2023-07-13T01:06:14;22.30;70.40
5520;DHT22;2782;52.362;10.012;2023-07-13T01:07:18;22.30;70.40
5520;DHT22;2782;52.362;10.012;2023-07-13T01:08:21;22.30;70.20
5520;DHT22;2782;52.362;10.012;2023-07-13T01:09:22;22.30;70.10
5520;DHT22;2782;52.362;10.012;2023-07-13T01:10:24;22.30;69.90
5520;DHT22;2782;52.362;10.012;2023-07-13T01:11:26;22.30;69.70
5520;DHT22;2782;52.362;10.012;2023-07-13T01:12:27;22.40;69.70
5520;DHT22;2782;52.362;10.012;2023-07-13T01:13:28;22.40;69.30
5520;DHT22;2782;52.362;10.012;2023-07-13T01:14:29;22.40;69.20
5520;DHT22;2782;52.362;10.012;2023-07-13T01:15:36;22.40;69.00
5520;DHT22;2782;52.362;10.012;2023-07-13T01:16:38;22.50;69.00
5520;DHT22;2782;52.362;10.012;2023-07-13T01:17:40;22.40;68.70
5520;DHT22;2782;52.362;10.012;2023-07-13T01:18:40;22.50;68.70
5520;DHT22;2782;52.362;10.012;2023-07-13T01:19:43;22.50;68.70
5520;DHT22;2782;52.362;10.012;2023-07-13T01:20:53;22.50;68.50
5520;DHT22;2782;52.362;10.012;2023-07-13T01:21:54;22.50;68.40
5520;DHT22;2782;52.362;10.012;2023-07-13T01:22:56;22.50;68.40
5520;DHT22;2782;52.362;10.012;2023-07-13T01:23:57;22.50;68.20
5520;DHT22;2782;52.362;10.012;2023-07-13T01:24:59;22.50;68.20
5520;DHT22;2782;52.362;10.012;2023-07-13T01:25:59;22.50;68.20
5520;DHT22;2782;52.362;10.012;2023-07-13T01:27:01;22.50;68.20
5520;DHT22;2782;52.362;10.012;2023-07-13T01:28:03;22.50;68.20
5520;DHT22;2782;52.362;10.012;2023-07-13T01:29:05;22.50;68.30
5520;DHT22;2782;52.362;10.012;2023-07-13T01:30:06;22.60;68.30
5520;DHT22;2782;52.362;10.012;2023-07-13T01:31:08;22.60;68.30
5520;DHT22;2782;52.362;10.012;2023-07-13T01:32:11;22.50;68.20
5520;DHT22;2782;52.362;10.012;2023-07-13T01:33:15;22.60;68.20
5520;DHT22;2782;52.362;10.012;2023-07-13T01:34:16;22.50;68.10
5520;DHT22;2782;52.362;10.012;2023-07-13T01:35:18;22.60;68.10
5520;DHT22;2782;52.362;10.012;2023-07-13T01:36:20;22.50;67.90
5520;DHT22;2782;52.362;10.012;2023-07-13T01:37:24;22.50;68.00
5520;DHT22;2782;52.362;10.012;2023-07-13T01:38:26;22.50;68.00
5520;DHT22;2782;52.362;10.012;2023-07-13T01:39:27;22.50;68.10
5520;DHT22;2782;52.362;10.012;2023-07-13T01:40:29;22.50;68.10
5520;DHT22;2782;52.362;10.012;2023-07-13T01:41:30;22.50;68.20
5520;DHT22;2782;52.362;10.012;2023-07-13T01:42:31;22.50;68.90
5520;DHT22;2782;52.362;10.012;2023-07-13T01:43:32;22.50;68.10
5520;DHT22;2782;52.362;10.012;2023-07-13T01:44:33;22.50;68.00
5520;DHT22;2782;52.362;10.012;2023-07-13T01:45:34;22.50;67.70
5520;DHT22;2782;52.362;10.012;2023-07-13T01:46:35;22.60;67.60
5520;DHT22;2782;52.362;10.012;2023-07-13T01:47:36;22.50;67.40
5520;DHT22;2782;52.362;10.012;2023-07-13T01:48:37;22.50;67.40
5520;DHT22;2782;52.362;10.012;2023-07-13T01:49:39;22.60;67.50
5520;DHT22;2782;52.362;10.012;2023-07-13T01:50:39;22.50;67.20
5520;DHT22;2782;52.362;10.012;2023-07-13T01:51:42;22.50;67.20
5520;DHT22;2782;52.362;10.012;2023-07-13T01:52:43;22.50;67.10
5520;DHT22;2782;52.362;10.012;2023-07-13T01:53:45;22.50;67.20
5520;DHT22;2782;52.362;10.012;2023-07-13T01:54:46;22.50;67.10
5520;DHT22;2782;52.362;10.012;2023-07-13T01:55:47;22.50;67.10
5520;DHT22;2782;52.362;10.012;2023-07-13T01:56:48;22.50;67.10
5520;DHT22;2782;52.362;10.012;2023-07-13T01:57:50;22.50;67.00
5520;DHT22;2782;52.362;10.012;2023-07-13T01:58:52;22.50;67.10
5520;DHT22;2782;52.362;10.012;2023-07-13T01:59:53;22.50;67.10
5520;DHT22;2782;52.362;10.012;2023-07-13T02:00:54;22.50;67.10
5520;DHT22;2782;52.362;10.012;2023-07-13T02:01:55;22.50;67.10
5520;DHT22;2782;52.362;10.012;2023-07-13T02:02:56;22.50;67.10
5520;DHT22;2782;52.362;10.012;2023-07-13T02:03:58;22.50;67.10
5520;DHT22;2782;52.362;10.012;2023-07-13T02:04:58;22.50;67.10
5520;DHT22;2782;52.362;10.012;2023-07-13T02:05:59;22.40;67.00
5520;DHT22;2782;52.362;10.012;2023-07-13T02:07:02;22.40;67.00
5520;DHT22;2782;52.362;10.012;2023-07-13T02:08:03;22.40;67.10
5520;DHT22;2782;52.362;10.012;2023-07-13T02:09:05;22.40;67.30
5520;DHT22;2782;52.362;10.012;2023-07-13T02:10:06;22.40;67.40
5520;DHT22;2782;52.362;10.012;2023-07-13T02:11:07;22.40;67.50
5520;DHT22;2782;52.362;10.012;2023-07-13T02:12:09;22.40;67.60
5520;DHT22;2782;52.362;10.012;2023-07-13T02:13:11;22.30;67.60
5520;DHT22;2782;52.362;10.012;2023-07-13T02:14:13;22.40;68.50
5520;DHT22;2782;52.362;10.012;2023-07-13T02:15:15;22.30;67.70
5520;DHT22;2782;52.362;10.012;2023-07-13T02:16:17;22.30;67.80
5520;DHT22;2782;52.362;10.012;2023-07-13T02:17:18;22.30;67.80
5520;DHT22;2782;52.362;10.012;2023-07-13T02:18:19;22.40;67.90
5520;DHT22;2782;52.362;10.012;2023-07-13T02:19:20;22.30;67.80
5520;DHT22;2782;52.362;10.012;2023-07-13T02:20:22;22.40;67.90
5520;DHT22;2782;52.362;10.012;2023-07-13T02:21:23;22.30;67.70
5520;DHT22;2782;52.362;10.012;2023-07-13T02:22:26;22.30;67.70
5520;DHT22;2782;52.362;10.012;2023-07-13T02:23:26;22.30;67.60
5520;DHT22;2782;52.362;10.012;2023-07-13T02:24:28;22.30;67.60
5520;DHT22;2782;52.362;10.012;2023-07-13T02:25:29;22.40;67.60
5520;DHT22;2782;52.362;10.012;2023-07-13T02:26:30;22.40;67.60
5520;DHT22;2782;52.362;10.012;2023-07-13T02:27:31;22.30;67.40
5520;DHT22;2782;52.362;10.012;2023-07-13T02:28:33;22.30;67.40
5520;DHT22;2782;52.362;10.012;2023-07-13T02:29:33;22.30;67.30
5520;DHT22;2782;52.362;10.012;2023-07-13T02:30:35;22.30;67.30
5520;DHT22;2782;52.362;10.012;2023-07-13T02:31:36;22.30;67.30
5520;DHT22;2782;52.362;10.012;2023-07-13T02:32:38;22.30;67.20
5520;DHT22;2782;52.362;10.012;2023-07-13T02:33:38;22.30;67.20
5520;DHT22;2782;52.362;10.012;2023-07-13T02:34:41;22.30;67.10
5520;DHT22;2782;52.362;10.012;2023-07-13T02:35:42;22.30;67.10
5520;DHT22;2782;52.362;10.012;2023-07-13T02:36:44;22.30;67.00
5520;DHT22;2782;52.362;10.012;2023-07-13T02:37:46;22.30;67.00
5520;DHT22;2782;52.362;10.012;2023-07-13T02:38:49;22.30;66.90
5520;DHT22;2782;52.362;10.012;2023-07-13T02:39:50;22.40;67.00
5520;DHT22;2782;52.362;10.012;2023-07-13T02:40:51;22.40;66.80
5520;DHT22;2782;52.362;10.012;2023-07-13T02:41:52;22.40;67.50
5520;DHT22;2782;52.362;10.012;2023-07-13T02:42:54;22.30;66.70
5520;DHT22;2782;52.362;10.012;2023-07-13T02:43:54;22.40;66.70
5520;DHT22;2782;52.362;10.012;2023-07-13T02:45:03;22.30;66.60
5520;DHT22;2782;52.362;10.012;2023-07-13T02:46:04;22.40;66.90
5520;DHT22;2782;52.362;10.012;2023-07-13T02:47:07;22.30;67.10
5520;DHT22;2782;52.362;10.012;2023-07-13T02:48:08;22.40;67.20
5520;DHT22;2782;52.362;10.012;2023-07-13T02:49:09;22.30;67.10
5520;DHT22;2782;52.362;10.012;2023-07-13T02:50:10;22.30;67.10
5520;DHT22;2782;52.362;10.012;2023-07-13T02:51:12;22.30;67.20
5520;DHT22;2782;52.362;10.012;2023-07-13T02:52:12;22.20;67.20
5520;DHT22;2782;52.362;10.012;2023-07-13T02:53:15;22.20;67.30
5520;DHT22;2782;52.362;10.012;2023-07-13T02:54:16;22.20;67.40
5520;DHT22;2782;52.362;10.012;2023-07-13T02:55:17;22.10;67.40
5520;DHT22;2782;52.362;10.012;2023-07-13T02:56:21;22.10;67.50
5520;DHT22;2782;52.362;10.012;2023-07-13T02:57:23;22.10;67.60
5520;DHT22;2782;52.362;10.012;2023-07-13T02:58:24;22.10;67.70
5520;DHT22;2782;52.362;10.012;2023-07-13T02:59:25;22.00;67.60
5520;DHT22;2782;52.362;10.012;2023-07-13T03:00:27;21.90;67.60
5520;DHT22;2782;52.362;10.012;2023-07-13T03:01:28;21.90;67.70
5520;DHT22;2782;52.362;10.012;2023-07-13T03:02:30;21.90;67.80
5520;DHT22;2782;52.362;10.012;2023-07-13T03:03:32;21.90;67.90
5520;DHT22;2782;52.362;10.012;2023-07-13T03:04:35;21.80;67.80
5520;DHT22;2782;52.362;10.012;2023-07-13T03:05:37;21.80;67.90
5520;DHT22;2782;52.362;10.012;2023-07-13T03:06:38;21.80;68.00
5520;DHT22;2782;52.362;10.012;2023-07-13T03:07:39;21.80;68.00
5520;DHT22;2782;52.362;10.012;2023-07-13T03:08:41;21.80;68.10
5520;DHT22;2782;52.362;10.012;2023-07-13T03:09:43;21.70;68.00
5520;DHT22;2782;52.362;10.012;2023-07-13T03:10:44;21.70;68.00
5520;DHT22;2782;52.362;10.012;2023-07-13T03:11:46;21.70;68.10
5520;DHT22;2782;52.362;10.012;2023-07-13T03:12:46;21.70;68.10
5520;DHT22;2782;52.362;10.012;2023-07-13T03:13:48;21.70;68.20
5520;DHT22;2782;52.362;10.012;2023-07-13T03:14:49;21.70;68.20
5520;DHT22;2782;52.362;10.012;2023-07-13T03:15:50;21.60;68.10
5520;DHT22;2782;52.362;10.012;2023-07-13T03:16:51;21.60;68.10
5520;DHT22;2782;52.362;10.012;2023-07-13T03:17:53;21.60;68.00
5520;DHT22;2782;52.362;10.012;2023-07-13T03:18:53;21.60;68.00
5520;DHT22;2782;52.362;10.012;2023-07-13T03:19:54;21.60;68.10
5520;DHT22;2782;52.362;10.012;2023-07-13T03:20:56;21.60;68.00
5520;DHT22;2782;52.362;10.012;2023-07-13T03:21:56;21.60;68.00
5520;DHT22;2782;52.362;10.012;2023-07-13T03:22:58;21.60;67.90
5520;DHT22;2782;52.362;10.012;2023-07-13T03:24:00;21.60;68.00
5520;DHT22;2782;52.362;10.012;2023-07-13T03:25:01;21.60;68.00
5520;DHT22;2782;52.362;10.012;2023-07-13T03:26:05;21.60;68.00
5520;DHT22;2782;52.362;10.012;2023-07-13T03:27:08;21.60;68.00
5520;DHT22;2782;52.362;10.012;2023-07-13T03:28:08;21.60;68.10
5520;DHT22;2782;52.362;10.012;2023-07-13T03:29:10;21.70;68.10
5520;DHT22;2782;52.362;10.012;2023-07-13T03:30:12;21.60;67.80
5520;DHT22;2782;52.362;10.012;2023-07-13T03:31:16;21.60;67.70
5520;DHT22;2782;52.362;10.012;2023-07-13T03:32:17;21.60;67.70
5520;DHT22;2782;52.362;10.012;2023-07-13T03:33:18;21.60;67.60
5520;DHT22;2782;52.362;10.012;2023-07-13T03:34:20;21.60;67.60
5520;DHT22;2782;52.362;10.012;2023-07-13T03:35:22;21.60;67.50
5520;DHT22;2782;52.362;10.012;2023-07-13T03:36:25;21.60;67.50
5520;DHT22;2782;52.362;10.012;2023-07-13T03:37:27;21.60;67.50
5520;DHT22;2782;52.362;10.012;2023-07-13T03:38:28;21.60;67.40
5520;DHT22;2782;52.362;10.012;2023-07-13T03:39:31;21.60;67.50
5520;DHT22;2782;52.362;10.012;2023-07-13T03:40:32;21.60;67.60
5520;DHT22;2782;52.362;10.012;2023-07-13T03:41:33;21.60;67.70
5520;DHT22;2782;52.362;10.012;2023-07-13T03:42:34;21.60;67.60
5520;DHT22;2782;52.362;10.012;2023-07-13T03:43:36;21.70;67.60
5520;DHT22;2782;52.362;10.012;2023-07-13T03:44:36;21.60;67.50
5520;DHT22;2782;52.362;10.012;2023-07-13T03:45:38;21.70;67.60
5520;DHT22;2782;52.362;10.012;2023-07-13T03:46:39;21.70;67.60
5520;DHT22;2782;52.362;10.012;2023-07-13T03:47:40;21.70;67.60
5520;DHT22;2782;52.362;10.012;2023-07-13T03:48:41;21.80;67.60
5520;DHT22;2782;52.362;10.012;2023-07-13T03:49:44;21.80;67.50
5520;DHT22;2782;52.362;10.012;2023-07-13T03:50:47;21.80;67.30
5520;DHT22;2782;52.362;10.012;2023-07-13T03:51:49;21.80;67.30
5520;DHT22;2782;52.362;10.012;2023-07-13T03:52:50;21.80;67.20
5520;DHT22;2782;52.362;10.012;2023-07-13T03:53:51;21.80;67.10
5520;DHT22;2782;52.362;10.012;2023-07-13T03:54:53;21.90;67.10
5520;DHT22;2782;52.362;10.012;2023-07-13T03:55:55;21.80;66.70
5520;DHT22;2782;52.362;10.012;2023-07-13T03:56:55;21.80;66.60
5520;DHT22;2782;52.362;10.012;2023-07-13T03:57:59;21.80;66.50
5520;DHT22;2782;52.362;10.012;2023-07-13T03:59:00;21.80;66.50
5520;DHT22;2782;52.362;10.012;2023-07-13T04:00:03;21.80;66.50
5520;DHT22;2782;52.362;10.012;2023-07-13T04:01:06;21.80;66.50
5520;DHT22;2782;52.362;10.012;2023-07-13T04:02:07;21.80;66.50
5520;DHT22;2782;52.362;10.012;2023-07-13T04:03:09;21.80;66.40
5520;DHT22;2782;52.362;10.012;2023-07-13T04:04:11;21.80;66.40
5520;DHT22;2782;52.362;10.012;2023-07-13T04:05:13;21.80;66.30
5520;DHT22;2782;52.362;10.012;2023-07-13T04:06:15;21.80;66.30
5520;DHT22;2782;52.362;10.012;2023-07-13T04:07:21;21.80;66.30
5520;DHT22;2782;52.362;10.012;2023-07-13T04:08:22;21.80;66.30
5520;DHT22;2782;52.362;10.012;2023-07-13T04:09:23;21.80;66.30
5520;DHT22;2782;52.362;10.012;2023-07-13T04:10:25;21.80;66.30
5520;DHT22;2782;52.362;10.012;2023-07-13T04:11:29;21.80;66.30
5520;DHT22;2782;52.362;10.012;2023-07-13T04:12:29;21.80;66.30
5520;DHT22;2782;52.362;10.012;2023-07-13T04:13:31;21.80;66.20
5520;DHT22;2782;52.362;10.012;2023-07-13T04:14:32;21.80;66.20
5520;DHT22;2782;52.362;10.012;2023-07-13T04:15:33;21.70;65.90
5520;DHT22;2782;52.362;10.012;2023-07-13T04:16:34;21.70;65.50
5520;DHT22;2782;52.362;10.012;2023-07-13T04:17:36;21.60;65.90
5520;DHT22;2782;52.362;10.012;2023-07-13T04:18:37;21.60;65.50
5520;DHT22;2782;52.362;10.012;2023-07-13T04:19:38;21.50;65.60
5520;DHT22;2782;52.362;10.012;2023-07-13T04:20:39;21.40;65.60
5520;DHT22;2782;52.362;10.012;2023-07-13T04:21:40;21.40;65.80
5520;DHT22;2782;52.362;10.012;2023-07-13T04:22:41;21.30;66.00
5520;DHT22;2782;52.362;10.012;2023-07-13T04:23:42;21.30;66.20
5520;DHT22;2782;52.362;10.012;2023-07-13T04:24:43;21.20;66.30
5520;DHT22;2782;52.362;10.012;2023-07-13T04:25:46;21.10;66.40
5520;DHT22;2782;52.362;10.012;2023-07-13T04:26:49;21.10;66.70
5520;DHT22;2782;52.362;10.012;2023-07-13T04:27:50;21.10;66.90
5520;DHT22;2782;52.362;10.012;2023-07-13T04:28:52;21.10;67.10
5520;DHT22;2782;52.362;10.012;2023-07-13T04:29:53;21.10;67.20
5520;DHT22;2782;52.362;10.012;2023-07-13T04:30:55;21.00;67.40
5520;DHT22;2782;52.362;10.012;2023-07-13T04:31:56;21.00;67.60
5520;DHT22;2782;52.362;10.012;2023-07-13T04:32:57;21.00;67.90
5520;DHT22;2782;52.362;10.012;2023-07-13T04:33:58;21.10;68.20
5520;DHT22;2782;52.362;10.012;2023-07-13T04:34:59;21.00;68.00
5520;DHT22;2782;52.362;10.012;2023-07-13T04:36:00;21.00;68.10
5520;DHT22;2782;52.362;10.012;2023-07-13T04:37:03;21.00;68.20
5520;DHT22;2782;52.362;10.012;2023-07-13T04:38:04;21.00;68.30
5520;DHT22;2782;52.362;10.012;2023-07-13T04:39:06;21.00;68.50
5520;DHT22;2782;52.362;10.012;2023-07-13T04:40:08;21.00;68.80
5520;DHT22;2782;52.362;10.012;2023-07-13T04:41:14;21.00;68.90
5520;DHT22;2782;52.362;10.012;2023-07-13T04:42:15;21.00;68.80
5520;DHT22;2782;52.362;10.012;2023-07-13T04:43:17;21.00;68.80
5520;DHT22;2782;52.362;10.012;2023-07-13T04:44:18;21.00;69.00
5520;DHT22;2782;52.362;10.012;2023-07-13T04:45:19;21.00;69.20
5520;DHT22;2782;52.362;10.012;2023-07-13T04:46:20;21.00;69.10
5520;DHT22;2782;52.362;10.012;2023-07-13T04:47:22;21.00;68.70
5520;DHT22;2782;52.362;10.012;2023-07-13T04:48:23;21.00;68.50
5520;DHT22;2782;52.362;10.012;2023-07-13T04:49:24;21.10;68.70
5520;DHT22;2782;52.362;10.012;2023-07-13T04:50:25;21.10;68.70
5520;DHT22;2782;52.362;10.012;2023-07-13T04:51:26;21.10;69.40
5520;DHT22;2782;52.362;10.012;2023-07-13T04:52:28;21.10;69.90
5520;DHT22;2782;52.362;10.012;2023-07-13T04:53:29;21.10;70.50
5520;DHT22;2782;52.362;10.012;2023-07-13T04:54:32;21.20;70.20
5520;DHT22;2782;52.362;10.012;2023-07-13T04:55:33;21.20;69.70
5520;DHT22;2782;52.362;10.012;2023-07-13T04:56:36;21.30;70.20
5520;DHT22;2782;52.362;10.012;2023-07-13T04:57:37;21.30;69.10
5520;DHT22;2782;52.362;10.012;2023-07-13T04:58:38;21.40;69.10
5520;DHT22;2782;52.362;10.012;2023-07-13T04:59:40;21.40;69.00
5520;DHT22;2782;52.362;10.012;2023-07-13T05:00:42;21.50;68.90
5520;DHT22;2782;52.362;10.012;2023-07-13T05:01:43;21.50;68.70
5520;DHT22;2782;52.362;10.012;2023-07-13T05:02:44;21.50;68.80
5520;DHT22;2782;52.362;10.012;2023-07-13T05:03:45;21.60;68.90
5520;DHT22;2782;52.362;10.012;2023-07-13T05:04:47;21.60;68.50
5520;DHT22;2782;52.362;10.012;2023-07-13T05:05:55;21.60;68.60
5520;DHT22;2782;52.362;10.012;2023-07-13T05:06:59;21.70;68.40
5520;DHT22;2782;52.362;10.012;2023-07-13T05:07:59;21.70;68.20
5520;DHT22;2782;52.362;10.012;2023-07-13T05:09:01;21.70;68.30
5520;DHT22;2782;52.362;10.012;2023-07-13T05:10:02;21.80;68.50
5520;DHT22;2782;52.362;10.012;2023-07-13T05:11:04;21.80;68.60
5520;DHT22;2782;52.362;10.012;2023-07-13T05:12:10;21.80;68.50
5520;DHT22;2782;52.362;10.012;2023-07-13T05:13:12;21.80;68.40
5520;DHT22;2782;52.362;10.012;2023-07-13T05:14:13;21.80;68.00
5520;DHT22;2782;52.362;10.012;2023-07-13T05:15:16;21.80;67.80
5520;DHT22;2782;52.362;10.012;2023-07-13T05:16:21;21.80;67.60
5520;DHT22;2782;52.362;10.012;2023-07-13T05:17:22;21.90;67.50
5520;DHT22;2782;52.362;10.012;2023-07-13T05:18:23;21.90;67.60
5520;DHT22;2782;52.362;10.012;2023-07-13T05:19:24;21.90;67.50
5520;DHT22;2782;52.362;10.012;2023-07-13T05:20:25;21.90;67.10
5520;DHT22;2782;52.362;10.012;2023-07-13T05:21:26;21.90;66.90
5520;DHT22;2782;52.362;10.012;2023-07-13T05:22:28;21.90;66.90
5520;DHT22;2782;52.362;10.012;2023-07-13T05:23:29;21.90;66.90
5520;DHT22;2782;52.362;10.012;2023-07-13T05:24:31;21.90;67.10
5520;DHT22;2782;52.362;10.012;2023-07-13T05:25:31;22.00;67.30
5520;DHT22;2782;52.362;10.012;2023-07-13T05:26:32;22.00;67.10
5520;DHT22;2782;52.362;10.012;2023-07-13T05:27:36;22.10;67.00
5520;DHT22;2782;52.362;10.012;2023-07-13T05:28:37;22.10;67.00
5520;DHT22;2782;52.362;10.012;2023-07-13T05:29:38;22.10;66.30
5520;DHT22;2782;52.362;10.012;2023-07-13T05:30:39;22.10;66.00
5520;DHT22;2782;52.362;10.012;2023-07-13T05:31:41;22.10;66.20
5520;DHT22;2782;52.362;10.012;2023-07-13T05:32:41;22.10;66.40
5520;DHT22;2782;52.362;10.012;2023-07-13T05:33:43;22.20;66.30
5520;DHT22;2782;52.362;10.012;2023-07-13T05:34:44;22.20;66.00
5520;DHT22;2782;52.362;10.012;2023-07-13T05:35:45;22.20;65.70
5520;DHT22;2782;52.362;10.012;2023-07-13T05:36:46;22.20;65.70
5520;DHT22;2782;52.362;10.012;2023-07-13T05:37:47;22.30;66.10
5520;DHT22;2782;52.362;10.012;2023-07-13T05:38:48;22.30;66.10
5520;DHT22;2782;52.362;10.012;2023-07-13T05:39:50;22.30;66.10
5520;DHT22;2782;52.362;10.012;2023-07-13T05:40:50;22.40;66.50
5520;DHT22;2782;52.362;10.012;2023-07-13T05:41:52;22.30;66.00
5520;DHT22;2782;52.362;10.012;2023-07-13T05:42:54;22.40;66.70
5520;DHT22;2782;52.362;10.012;2023-07-13T05:43:55;22.40;66.00
5520;DHT22;2782;52.362;10.012;2023-07-13T05:44:56;22.40;65.40
5520;DHT22;2782;52.362;10.012;2023-07-13T05:45:58;22.40;64.90
5520;DHT22;2782;52.362;10.012;2023-07-13T05:46:58;22.40;64.40
5520;DHT22;2782;52.362;10.012;2023-07-13T05:48:03;22.40;64.60
5520;DHT22;2782;52.362;10.012;2023-07-13T05:49:04;22.30;64.50
5520;DHT22;2782;52.362;10.012;2023-07-13T05:50:06;22.30;64.30
5520;DHT22;2782;52.362;10.012;2023-07-13T05:51:07;22.20;64.20
5520;DHT22;2782;52.362;10.012;2023-07-13T05:52:09;22.20;64.70
5520;DHT22;2782;52.362;10.012;2023-07-13T05:53:11;22.20;65.00
5520;DHT22;2782;52.362;10.012;2023-07-13T05:54:12;22.20;64.80
5520;DHT22;2782;52.362;10.012;2023-07-13T05:55:13;22.20;64.90
5520;DHT22;2782;52.362;10.012;2023-07-13T05:56:16;22.20;65.00
5520;DHT22;2782;52.362;10.012;2023-07-13T05:57:17;22.20;65.00
5520;DHT22;2782;52.362;10.012;2023-07-13T05:58:20;22.10;64.80
5520;DHT22;2782;52.362;10.012;2023-07-13T05:59:20;22.20;64.60
5520;DHT22;2782;52.362;10.012;2023-07-13T06:00:22;22.20;64.40
5520;DHT22;2782;52.362;10.012;2023-07-13T06:01:23;22.10;64.20
5520;DHT22;2782;52.362;10.012;2023-07-13T06:02:24;22.10;64.20
5520;DHT22;2782;52.362;10.012;2023-07-13T06:03:26;22.10;64.40
5520;DHT22;2782;52.362;10.012;2023-07-13T06:04:26;22.20;64.70
5520;DHT22;2782;52.362;10.012;2023-07-13T06:05:28;22.10;64.30
5520;DHT22;2782;52.362;10.012;2023-07-13T06:06:29;22.20;64.10
5520;DHT22;2782;52.362;10.012;2023-07-13T06:07:30;22.10;63.90
5520;DHT22;2782;52.362;10.012;2023-07-13T06:08:31;22.20;63.90
5520;DHT22;2782;52.362;10.012;2023-07-13T06:09:33;22.20;63.90
5520;DHT22;2782;52.362;10.012;2023-07-13T06:10:34;22.20;63.90
5520;DHT22;2782;52.362;10.012;2023-07-13T06:11:36;22.20;63.90
5520;DHT22;2782;52.362;10.012;2023-07-13T06:12:37;22.20;63.90
5520;DHT22;2782;52.362;10.012;2023-07-13T06:13:40;22.10;63.70
5520;DHT22;2782;52.362;10.012;2023-07-13T06:14:40;22.20;64.40
5520;DHT22;2782;52.362;10.012;2023-07-13T06:15:42;22.20;63.60
5520;DHT22;2782;52.362;10.012;2023-07-13T06:16:42;22.20;63.70
5520;DHT22;2782;52.362;10.012;2023-07-13T06:17:44;22.20;63.70
5520;DHT22;2782;52.362;10.012;2023-07-13T06:18:45;22.20;63.80
5520;DHT22;2782;52.362;10.012;2023-07-13T06:19:47;22.20;63.70
5520;DHT22;2782;52.362;10.012;2023-07-13T06:20:47;22.10;63.50
5520;DHT22;2782;52.362;10.012;2023-07-13T06:21:48;22.20;63.40
5520;DHT22;2782;52.362;10.012;2023-07-13T06:22:50;22.10;63.00
5520;DHT22;2782;52.362;10.012;2023-07-13T06:23:52;22.20;63.00
5520;DHT22;2782;52.362;10.012;2023-07-13T06:24:54;22.10;62.80
5520;DHT22;2782;52.362;10.012;2023-07-13T06:25:54;22.10;62.80
5520;DHT22;2782;52.362;10.012;2023-07-13T06:26:55;22.10;62.70
5520;DHT22;2782;52.362;10.012;2023-07-13T06:27:57;22.10;62.60
5520;DHT22;2782;52.362;10.012;2023-07-13T06:28:59;22.10;62.40
5520;DHT22;2782;52.362;10.012;2023-07-13T06:30:00;22.10;62.40
5520;DHT22;2782;52.362;10.012;2023-07-13T06:31:01;22.10;62.40
5520;DHT22;2782;52.362;10.012;2023-07-13T06:32:03;22.10;62.40
5520;DHT22;2782;52.362;10.012;2023-07-13T06:33:04;22.10;62.30
5520;DHT22;2782;52.362;10.012;2023-07-13T06:34:06;22.10;62.30
5520;DHT22;2782;52.362;10.012;2023-07-13T06:35:06;22.10;62.30
5520;DHT22;2782;52.362;10.012;2023-07-13T06:36:09;22.10;62.40